sensor_id;sensor_type;location;lat;lon;timestamp;P1;durP1;ratioP1;P2;durP2;ratioP2
58071;SDS011;60383;46.626;18.866;2022-09-12T00:00:21;2.00;;;1.70;;
58071;SDS011;60383;46.626;18.866;2022-09-12T00:02:50;1.60;;;1.50;;
58071;SDS011;60383;46.626;18.866;2022-09-12T00:05:16;2.17;;;1.73;;
58071;SDS011;60383;46.626;18.866;2022-09-12T00:07:42;1.83;;;1.55;;
58071;SDS011;60383;46.626;18.866;2022-09-12T00:10:07;1.48;;;1.38;;
58071;SDS011;60383;46.626;18.866;2022-09-12T00:12:33;2.80;;;1.73;;
58071;SDS011;60383;46.626;18.866;2022-09-12T00:14:58;2.78;;;1.83;;
58071;SDS011;60383;46.626;18.866;2022-09-12T00:17:24;3.28;;;1.75;;
58071;SDS011;60383;46.626;18.866;2022-09-12T00:19:50;1.83;;;1.63;;
58071;SDS011;60383;46.626;18.866;2022-09-12T00:22:15;2.60;;;1.60;;
58071;SDS011;60383;46.626;18.866;2022-09-12T00:24:40;3.80;;;1.88;;
58071;SDS011;60383;46.626;18.866;2022-09-12T00:27:06;2.22;;;1.73;;
58071;SDS011;60383;46.626;18.866;2022-09-12T00:29:31;3.33;;;2.10;;
58071;SDS011;60383;46.626;18.866;2022-09-12T00:31:57;2.15;;;1.95;;
58071;SDS011;60383;46.626;18.866;2022-09-12T00:34:22;1.80;;;1.70;;
58071;SDS011;60383;46.626;18.866;2022-09-12T00:36:48;3.60;;;2.00;;
58071;SDS011;60383;46.626;18.866;2022-09-12T00:39:14;2.47;;;2.20;;
58071;SDS011;60383;46.626;18.866;2022-09-12T00:41:41;2.30;;;2.10;;
58071;SDS011;60383;46.626;18.866;2022-09-12T00:51:37;2.80;;;2.10;;
58071;SDS011;60383;46.626;18.866;2022-09-12T00:54:09;2.42;;;2.22;;
58071;SDS011;60383;46.626;18.866;2022-09-12T00:56:38;2.22;;;2.03;;
58071;SDS011;60383;46.626;18.866;2022-09-12T00:59:10;2.40;;;2.20;;
58071;SDS011;60383;46.626;18.866;2022-09-12T01:01:42;2.55;;;2.35;;
58071;SDS011;60383;46.626;18.866;2022-09-12T01:04:10;2.50;;;2.30;;
58071;SDS011;60383;46.626;18.866;2022-09-12T01:06:41;2.50;;;2.30;;
58071;SDS011;60383;46.626;18.866;2022-09-12T01:09:08;2.60;;;2.38;;
58071;SDS011;60383;46.626;18.866;2022-09-12T01:14:05;2.78;;;2.58;;
58071;SDS011;60383;46.626;18.866;2022-09-12T01:16:33;3.97;;;2.80;;
58071;SDS011;60383;46.626;18.866;2022-09-12T01:19:07;3.58;;;2.60;;
58071;SDS011;60383;46.626;18.866;2022-09-12T01:32:54;3.70;;;2.72;;
58071;SDS011;60383;46.626;18.866;2022-09-12T01:43:33;4.07;;;3.10;;
58071;SDS011;60383;46.626;18.866;2022-09-12T01:46:29;3.90;;;2.92;;
58071;SDS011;60383;46.626;18.866;2022-09-12T01:49:02;4.40;;;3.28;;
58071;SDS011;60383;46.626;18.866;2022-09-12T01:54:37;4.15;;;3.78;;
58071;SDS011;60383;46.626;18.866;2022-09-12T01:57:10;5.15;;;3.65;;
58071;SDS011;60383;46.626;18.866;2022-09-12T01:59:45;3.78;;;3.38;;
58071;SDS011;60383;46.626;18.866;2022-09-12T02:02:48;4.90;;;3.70;;
58071;SDS011;60383;46.626;18.866;2022-09-12T02:05:29;3.53;;;3.22;;
58071;SDS011;60383;46.626;18.866;2022-09-12T02:08:01;4.28;;;3.47;;
58071;SDS011;60383;46.626;18.866;2022-09-12T02:10:33;4.53;;;3.70;;
58071;SDS011;60383;46.626;18.866;2022-09-12T02:13:16;6.10;;;4.13;;
58071;SDS011;60383;46.626;18.866;2022-09-12T02:18:15;5.13;;;3.90;;
58071;SDS011;60383;46.626;18.866;2022-09-12T02:20:42;4.60;;;3.80;;
58071;SDS011;60383;46.626;18.866;2022-09-12T02:23:12;5.57;;;4.20;;
58071;SDS011;60383;46.626;18.866;2022-09-12T02:25:42;4.97;;;4.47;;
58071;SDS011;60383;46.626;18.866;2022-09-12T02:28:32;4.75;;;4.13;;
58071;SDS011;60383;46.626;18.866;2022-09-12T02:36:48;5.45;;;4.88;;
58071;SDS011;60383;46.626;18.866;2022-09-12T02:39:15;5.18;;;4.63;;
58071;SDS011;60383;46.626;18.866;2022-09-12T02:41:44;6.90;;;4.80;;
58071;SDS011;60383;46.626;18.866;2022-09-12T02:44:21;5.55;;;5.00;;
58071;SDS011;60383;46.626;18.866;2022-09-12T02:46:49;9.75;;;4.95;;
58071;SDS011;60383;46.626;18.866;2022-09-12T02:49:19;6.43;;;4.38;;
58071;SDS011;60383;46.626;18.866;2022-09-12T02:51:46;6.28;;;5.65;;
58071;SDS011;60383;46.626;18.866;2022-09-12T02:54:13;7.57;;;5.60;;
58071;SDS011;60383;46.626;18.866;2022-09-12T02:56:41;6.18;;;4.95;;
58071;SDS011;60383;46.626;18.866;2022-09-12T02:59:08;6.03;;;4.70;;
58071;SDS011;60383;46.626;18.866;2022-09-12T03:07:51;5.68;;;5.07;;
58071;SDS011;60383;46.626;18.866;2022-09-12T03:10:35;7.00;;;5.25;;
58071;SDS011;60383;46.626;18.866;2022-09-12T03:13:23;8.77;;;5.63;;
58071;SDS011;60383;46.626;18.866;2022-09-12T03:21:32;6.35;;;5.60;;
58071;SDS011;60383;46.626;18.866;2022-09-12T03:24:16;7.63;;;6.30;;
58071;SDS011;60383;46.626;18.866;2022-09-12T03:26:51;7.07;;;5.90;;
58071;SDS011;60383;46.626;18.866;2022-09-12T03:29:17;7.65;;;5.97;;
58071;SDS011;60383;46.626;18.866;2022-09-12T03:31:53;8.40;;;6.00;;
58071;SDS011;60383;46.626;18.866;2022-09-12T03:34:21;8.60;;;6.07;;
58071;SDS011;60383;46.626;18.866;2022-09-12T03:36:47;7.97;;;6.20;;
58071;SDS011;60383;46.626;18.866;2022-09-12T03:39:13;8.18;;;6.13;;
58071;SDS011;60383;46.626;18.866;2022-09-12T03:41:39;7.35;;;6.10;;
58071;SDS011;60383;46.626;18.866;2022-09-12T03:44:06;7.75;;;5.93;;
58071;SDS011;60383;46.626;18.866;2022-09-12T03:46:32;7.28;;;6.13;;
58071;SDS011;60383;46.626;18.866;2022-09-12T03:48:58;7.20;;;6.22;;
58071;SDS011;60383;46.626;18.866;2022-09-12T03:51:23;8.48;;;6.07;;
58071;SDS011;60383;46.626;18.866;2022-09-12T03:53:49;8.38;;;6.32;;
58071;SDS011;60383;46.626;18.866;2022-09-12T03:56:14;10.23;;;6.90;;
58071;SDS011;60383;46.626;18.866;2022-09-12T03:58:40;8.70;;;7.10;;
58071;SDS011;60383;46.626;18.866;2022-09-12T04:01:12;11.63;;;7.28;;
58071;SDS011;60383;46.626;18.866;2022-09-12T04:03:43;8.73;;;7.40;;
58071;SDS011;60383;46.626;18.866;2022-09-12T04:06:11;7.88;;;6.75;;
58071;SDS011;60383;46.626;18.866;2022-09-12T04:08:39;8.85;;;7.05;;
58071;SDS011;60383;46.626;18.866;2022-09-12T04:11:06;8.23;;;6.35;;
58071;SDS011;60383;46.626;18.866;2022-09-12T04:13:34;9.02;;;6.18;;
58071;SDS011;60383;46.626;18.866;2022-09-12T04:16:00;9.25;;;6.90;;
58071;SDS011;60383;46.626;18.866;2022-09-12T04:18:26;8.98;;;6.90;;
58071;SDS011;60383;46.626;18.866;2022-09-12T04:20:52;9.25;;;7.25;;
58071;SDS011;60383;46.626;18.866;2022-09-12T04:23:18;9.73;;;6.85;;
58071;SDS011;60383;46.626;18.866;2022-09-12T04:25:44;9.60;;;7.50;;
58071;SDS011;60383;46.626;18.866;2022-09-12T04:28:21;10.60;;;7.25;;
58071;SDS011;60383;46.626;18.866;2022-09-12T04:30:47;10.55;;;6.95;;
58071;SDS011;60383;46.626;18.866;2022-09-12T04:33:13;8.82;;;7.22;;
58071;SDS011;60383;46.626;18.866;2022-09-12T04:35:39;8.93;;;7.15;;
58071;SDS011;60383;46.626;18.866;2022-09-12T04:38:05;8.45;;;7.10;;
58071;SDS011;60383;46.626;18.866;2022-09-12T04:40:31;9.80;;;7.72;;
58071;SDS011;60383;46.626;18.866;2022-09-12T04:42:57;9.35;;;7.43;;
58071;SDS011;60383;46.626;18.866;2022-09-12T04:45:23;8.98;;;7.50;;
58071;SDS011;60383;46.626;18.866;2022-09-12T04:47:48;8.23;;;7.32;;
58071;SDS011;60383;46.626;18.866;2022-09-12T04:50:13;9.88;;;7.40;;
58071;SDS011;60383;46.626;18.866;2022-09-12T04:52:39;8.65;;;7.35;;
58071;SDS011;60383;46.626;18.866;2022-09-12T04:55:05;23.70;;;20.00;;
58071;SDS011;60383;46.626;18.866;2022-09-12T04:57:32;9.23;;;7.32;;
58071;SDS011;60383;46.626;18.866;2022-09-12T04:59:57;11.57;;;7.68;;
58071;SDS011;60383;46.626;18.866;2022-09-12T05:02:23;10.20;;;7.70;;
58071;SDS011;60383;46.626;18.866;2022-09-12T05:04:49;9.27;;;7.80;;
58071;SDS011;60383;46.626;18.866;2022-09-12T05:07:16;10.02;;;7.72;;
58071;SDS011;60383;46.626;18.866;2022-09-12T05:09:43;11.50;;;8.00;;
58071;SDS011;60383;46.626;18.866;2022-09-12T05:12:09;8.50;;;7.13;;
58071;SDS011;60383;46.626;18.866;2022-09-12T05:14:34;8.60;;;7.60;;
58071;SDS011;60383;46.626;18.866;2022-09-12T05:17:00;10.00;;;7.40;;
58071;SDS011;60383;46.626;18.866;2022-09-12T05:19:26;9.65;;;6.88;;
58071;SDS011;60383;46.626;18.866;2022-09-12T05:21:54;15.98;;;7.22;;
58071;SDS011;60383;46.626;18.866;2022-09-12T05:24:20;8.23;;;7.00;;
58071;SDS011;60383;46.626;18.866;2022-09-12T05:26:46;9.73;;;7.57;;
58071;SDS011;60383;46.626;18.866;2022-09-12T05:29:11;9.13;;;6.70;;
58071;SDS011;60383;46.626;18.866;2022-09-12T05:31:37;9.52;;;6.82;;
58071;SDS011;60383;46.626;18.866;2022-09-12T05:34:03;8.63;;;7.22;;
58071;SDS011;60383;46.626;18.866;2022-09-12T05:36:31;8.60;;;6.95;;
58071;SDS011;60383;46.626;18.866;2022-09-12T05:38:58;9.70;;;7.50;;
58071;SDS011;60383;46.626;18.866;2022-09-12T05:41:25;8.63;;;7.50;;
58071;SDS011;60383;46.626;18.866;2022-09-12T05:43:56;9.93;;;7.10;;
58071;SDS011;60383;46.626;18.866;2022-09-12T05:46:25;12.07;;;7.20;;
58071;SDS011;60383;46.626;18.866;2022-09-12T05:48:52;10.57;;;7.30;;
58071;SDS011;60383;46.626;18.866;2022-09-12T05:51:26;8.85;;;7.15;;
58071;SDS011;60383;46.626;18.866;2022-09-12T05:53:53;11.70;;;6.97;;
58071;SDS011;60383;46.626;18.866;2022-09-12T05:56:22;11.50;;;7.25;;
58071;SDS011;60383;46.626;18.866;2022-09-12T05:58:56;8.50;;;6.88;;
58071;SDS011;60383;46.626;18.866;2022-09-12T06:01:23;8.82;;;6.07;;
58071;SDS011;60383;46.626;18.866;2022-09-12T06:03:52;9.85;;;7.88;;
58071;SDS011;60383;46.626;18.866;2022-09-12T06:06:19;9.30;;;6.88;;
58071;SDS011;60383;46.626;18.866;2022-09-12T06:08:47;9.43;;;6.90;;
58071;SDS011;60383;46.626;18.866;2022-09-12T06:11:16;9.48;;;6.90;;
58071;SDS011;60383;46.626;18.866;2022-09-12T06:13:43;9.52;;;7.47;;
58071;SDS011;60383;46.626;18.866;2022-09-12T06:16:13;9.05;;;6.32;;
58071;SDS011;60383;46.626;18.866;2022-09-12T06:18:47;8.80;;;6.65;;
58071;SDS011;60383;46.626;18.866;2022-09-12T06:21:14;7.32;;;6.55;;
58071;SDS011;60383;46.626;18.866;2022-09-12T06:23:39;7.65;;;5.97;;
58071;SDS011;60383;46.626;18.866;2022-09-12T06:26:06;7.25;;;6.45;;
58071;SDS011;60383;46.626;18.866;2022-09-12T06:28:37;8.30;;;6.50;;
58071;SDS011;60383;46.626;18.866;2022-09-12T06:31:08;8.07;;;6.68;;
58071;SDS011;60383;46.626;18.866;2022-09-12T06:33:36;9.13;;;5.95;;
58071;SDS011;60383;46.626;18.866;2022-09-12T06:36:03;8.88;;;6.80;;
58071;SDS011;60383;46.626;18.866;2022-09-12T06:40:59;6.72;;;5.88;;
58071;SDS011;60383;46.626;18.866;2022-09-12T06:43:27;5.95;;;5.30;;
58071;SDS011;60383;46.626;18.866;2022-09-12T06:45:53;6.80;;;5.28;;
58071;SDS011;60383;46.626;18.866;2022-09-12T06:48:19;7.40;;;5.60;;
58071;SDS011;60383;46.626;18.866;2022-09-12T06:50:53;7.50;;;5.57;;
58071;SDS011;60383;46.626;18.866;2022-09-12T06:53:39;6.38;;;5.13;;
58071;SDS011;60383;46.626;18.866;2022-09-12T06:56:08;6.65;;;5.43;;
58071;SDS011;60383;46.626;18.866;2022-09-12T06:58:36;6.50;;;5.90;;
58071;SDS011;60383;46.626;18.866;2022-09-12T07:03:30;6.60;;;5.20;;
58071;SDS011;60383;46.626;18.866;2022-09-12T07:05:56;7.90;;;5.10;;
58071;SDS011;60383;46.626;18.866;2022-09-12T07:08:25;7.60;;;5.20;;
58071;SDS011;60383;46.626;18.866;2022-09-12T07:10:53;5.80;;;4.55;;
58071;SDS011;60383;46.626;18.866;2022-09-12T07:13:18;8.57;;;4.70;;
58071;SDS011;60383;46.626;18.866;2022-09-12T07:15:44;5.82;;;4.60;;
58071;SDS011;60383;46.626;18.866;2022-09-12T07:18:09;7.70;;;4.75;;
58071;SDS011;60383;46.626;18.866;2022-09-12T07:20:35;8.93;;;4.70;;
58071;SDS011;60383;46.626;18.866;2022-09-12T07:23:03;5.70;;;4.57;;
58071;SDS011;60383;46.626;18.866;2022-09-12T07:25:28;15.57;;;12.80;;
58071;SDS011;60383;46.626;18.866;2022-09-12T07:27:54;5.20;;;4.47;;
58071;SDS011;60383;46.626;18.866;2022-09-12T07:30:19;5.95;;;4.15;;
58071;SDS011;60383;46.626;18.866;2022-09-12T07:32:46;9.15;;;4.32;;
58071;SDS011;60383;46.626;18.866;2022-09-12T07:35:12;5.18;;;4.28;;
58071;SDS011;60383;46.626;18.866;2022-09-12T07:37:37;7.40;;;4.32;;
58071;SDS011;60383;46.626;18.866;2022-09-12T07:40:03;4.55;;;3.72;;
58071;SDS011;60383;46.626;18.866;2022-09-12T07:42:28;4.90;;;3.75;;
58071;SDS011;60383;46.626;18.866;2022-09-12T07:44:54;6.35;;;3.47;;
58071;SDS011;60383;46.626;18.866;2022-09-12T07:47:20;6.43;;;3.80;;
58071;SDS011;60383;46.626;18.866;2022-09-12T07:49:45;3.78;;;3.20;;
58071;SDS011;60383;46.626;18.866;2022-09-12T07:52:11;4.80;;;4.00;;
58071;SDS011;60383;46.626;18.866;2022-09-12T07:54:37;7.68;;;3.35;;
58071;SDS011;60383;46.626;18.866;2022-09-12T07:57:02;5.05;;;3.40;;
58071;SDS011;60383;46.626;18.866;2022-09-12T07:59:28;5.85;;;3.15;;
58071;SDS011;60383;46.626;18.866;2022-09-12T08:01:53;4.15;;;3.08;;
58071;SDS011;60383;46.626;18.866;2022-09-12T08:04:19;3.70;;;3.05;;
58071;SDS011;60383;46.626;18.866;2022-09-12T08:06:45;4.25;;;3.25;;
58071;SDS011;60383;46.626;18.866;2022-09-12T08:09:10;4.57;;;3.10;;
58071;SDS011;60383;46.626;18.866;2022-09-12T08:11:36;5.18;;;3.33;;
58071;SDS011;60383;46.626;18.866;2022-09-12T08:14:02;4.68;;;3.00;;
58071;SDS011;60383;46.626;18.866;2022-09-12T08:16:30;4.75;;;3.10;;
58071;SDS011;60383;46.626;18.866;2022-09-12T08:18:56;4.72;;;3.47;;
58071;SDS011;60383;46.626;18.866;2022-09-12T08:21:25;6.28;;;3.03;;
58071;SDS011;60383;46.626;18.866;2022-09-12T08:23:53;4.68;;;3.25;;
58071;SDS011;60383;46.626;18.866;2022-09-12T08:26:24;3.20;;;2.80;;
58071;SDS011;60383;46.626;18.866;2022-09-12T08:28:50;5.85;;;4.20;;
58071;SDS011;60383;46.626;18.866;2022-09-12T08:31:17;3.63;;;3.10;;
58071;SDS011;60383;46.626;18.866;2022-09-12T08:33:44;2.97;;;2.35;;
58071;SDS011;60383;46.626;18.866;2022-09-12T08:36:16;3.58;;;3.08;;
58071;SDS011;60383;46.626;18.866;2022-09-12T08:38:46;3.42;;;2.75;;
58071;SDS011;60383;46.626;18.866;2022-09-12T08:41:17;3.15;;;2.85;;
58071;SDS011;60383;46.626;18.866;2022-09-12T08:44:11;5.25;;;2.67;;
58071;SDS011;60383;46.626;18.866;2022-09-12T08:49:12;3.28;;;2.40;;
58071;SDS011;60383;46.626;18.866;2022-09-12T08:51:51;2.67;;;2.30;;
58071;SDS011;60383;46.626;18.866;2022-09-12T08:54:21;3.10;;;2.40;;
58071;SDS011;60383;46.626;18.866;2022-09-12T08:56:50;3.25;;;2.25;;
58071;SDS011;60383;46.626;18.866;2022-09-12T08:59:21;2.35;;;1.98;;
58071;SDS011;60383;46.626;18.866;2022-09-12T09:01:47;4.88;;;3.45;;
58071;SDS011;60383;46.626;18.866;2022-09-12T09:17:23;2.83;;;1.90;;
58071;SDS011;60383;46.626;18.866;2022-09-12T09:19:58;2.28;;;1.92;;
58071;SDS011;60383;46.626;18.866;2022-09-12T09:22:48;3.97;;;2.40;;
58071;SDS011;60383;46.626;18.866;2022-09-12T09:25:32;4.22;;;2.30;;
58071;SDS011;60383;46.626;18.866;2022-09-12T09:28:10;2.20;;;1.48;;
58071;SDS011;60383;46.626;18.866;2022-09-12T09:30:39;2.33;;;1.90;;
58071;SDS011;60383;46.626;18.866;2022-09-12T09:33:09;2.78;;;2.25;;
58071;SDS011;60383;46.626;18.866;2022-09-12T09:35:43;2.85;;;2.08;;
58071;SDS011;60383;46.626;18.866;2022-09-12T09:41:06;1.73;;;1.63;;
58071;SDS011;60383;46.626;18.866;2022-09-12T09:43:35;2.92;;;1.80;;
58071;SDS011;60383;46.626;18.866;2022-09-12T09:46:02;4.10;;;1.75;;
58071;SDS011;60383;46.626;18.866;2022-09-12T09:48:28;4.97;;;1.77;;
58071;SDS011;60383;46.626;18.866;2022-09-12T09:50:56;3.47;;;2.13;;
58071;SDS011;60383;46.626;18.866;2022-09-12T09:53:35;3.42;;;2.40;;
58071;SDS011;60383;46.626;18.866;2022-09-12T09:56:10;1.90;;;1.80;;
58071;SDS011;60383;46.626;18.866;2022-09-12T09:58:39;4.38;;;1.67;;
58071;SDS011;60383;46.626;18.866;2022-09-12T10:01:11;4.22;;;1.55;;
58071;SDS011;60383;46.626;18.866;2022-09-12T10:04:01;1.88;;;1.70;;
58071;SDS011;60383;46.626;18.866;2022-09-12T10:06:29;1.70;;;1.50;;
58071;SDS011;60383;46.626;18.866;2022-09-12T10:11:57;2.70;;;1.70;;
58071;SDS011;60383;46.626;18.866;2022-09-12T10:14:36;6.85;;;1.60;;
58071;SDS011;60383;46.626;18.866;2022-09-12T10:20:04;2.70;;;1.88;;
58071;SDS011;60383;46.626;18.866;2022-09-12T10:22:49;3.38;;;1.88;;
58071;SDS011;60383;46.626;18.866;2022-09-12T10:25:15;4.65;;;1.63;;
58071;SDS011;60383;46.626;18.866;2022-09-12T10:27:44;3.35;;;1.58;;
58071;SDS011;60383;46.626;18.866;2022-09-12T10:30:19;2.55;;;1.55;;
58071;SDS011;60383;46.626;18.866;2022-09-12T10:32:48;1.73;;;1.17;;
58071;SDS011;60383;46.626;18.866;2022-09-12T10:35:19;2.38;;;1.50;;
58071;SDS011;60383;46.626;18.866;2022-09-12T10:37:54;3.20;;;1.55;;
58071;SDS011;60383;46.626;18.866;2022-09-12T10:40:29;1.95;;;1.50;;
58071;SDS011;60383;46.626;18.866;2022-09-12T10:43:00;2.00;;;1.58;;
58071;SDS011;60383;46.626;18.866;2022-09-12T10:48:18;4.43;;;1.50;;
58071;SDS011;60383;46.626;18.866;2022-09-12T10:50:56;2.50;;;2.30;;
58071;SDS011;60383;46.626;18.866;2022-09-12T10:53:24;3.78;;;1.60;;
58071;SDS011;60383;46.626;18.866;2022-09-12T10:59:21;2.65;;;1.60;;
58071;SDS011;60383;46.626;18.866;2022-09-12T11:18:12;5.60;;;1.92;;
58071;SDS011;60383;46.626;18.866;2022-09-12T11:35:39;1.80;;;1.60;;
58071;SDS011;60383;46.626;18.866;2022-09-12T11:43:06;2.15;;;1.77;;
58071;SDS011;60383;46.626;18.866;2022-09-12T11:45:46;2.80;;;2.15;;
58071;SDS011;60383;46.626;18.866;2022-09-12T11:51:20;1.80;;;1.60;;
58071;SDS011;60383;46.626;18.866;2022-09-12T11:53:59;1.70;;;1.60;;
58071;SDS011;60383;46.626;18.866;2022-09-12T11:56:29;3.17;;;1.98;;
58071;SDS011;60383;46.626;18.866;2022-09-12T11:59:08;2.33;;;1.67;;
58071;SDS011;60383;46.626;18.866;2022-09-12T12:01:49;4.95;;;1.73;;
58071;SDS011;60383;46.626;18.866;2022-09-12T12:04:19;3.03;;;1.83;;
58071;SDS011;60383;46.626;18.866;2022-09-12T12:06:54;2.13;;;1.55;;
58071;SDS011;60383;46.626;18.866;2022-09-12T12:09:27;2.25;;;1.33;;
58071;SDS011;60383;46.626;18.866;2022-09-12T12:11:54;3.13;;;1.40;;
58071;SDS011;60383;46.626;18.866;2022-09-12T12:14:23;4.47;;;1.55;;
58071;SDS011;60383;46.626;18.866;2022-09-12T12:16:54;2.00;;;1.80;;
58071;SDS011;60383;46.626;18.866;2022-09-12T12:22:05;5.00;;;3.50;;
58071;SDS011;60383;46.626;18.866;2022-09-12T12:24:52;7.32;;;3.00;;
58071;SDS011;60383;46.626;18.866;2022-09-12T12:27:24;2.78;;;1.80;;
58071;SDS011;60383;46.626;18.866;2022-09-12T12:32:57;2.65;;;2.00;;
58071;SDS011;60383;46.626;18.866;2022-09-12T12:35:43;4.40;;;2.30;;
58071;SDS011;60383;46.626;18.866;2022-09-12T12:38:32;2.78;;;2.30;;
58071;SDS011;60383;46.626;18.866;2022-09-12T12:46:12;2.25;;;2.05;;
58071;SDS011;60383;46.626;18.866;2022-09-12T12:48:47;2.10;;;1.70;;
58071;SDS011;60383;46.626;18.866;2022-09-12T12:53:48;2.58;;;1.83;;
58071;SDS011;60383;46.626;18.866;2022-09-12T12:56:26;2.40;;;2.20;;
58071;SDS011;60383;46.626;18.866;2022-09-12T13:01:43;2.20;;;1.98;;
58071;SDS011;60383;46.626;18.866;2022-09-12T13:04:21;2.90;;;2.60;;
58071;SDS011;60383;46.626;18.866;2022-09-12T13:06:59;6.22;;;2.40;;
58071;SDS011;60383;46.626;18.866;2022-09-12T13:12:31;3.70;;;2.58;;
58071;SDS011;60383;46.626;18.866;2022-09-12T13:14:58;2.80;;;2.13;;
58071;SDS011;60383;46.626;18.866;2022-09-12T13:17:26;2.67;;;2.30;;
58071;SDS011;60383;46.626;18.866;2022-09-12T13:20:01;3.03;;;2.08;;
58071;SDS011;60383;46.626;18.866;2022-09-12T13:22:40;2.28;;;2.00;;
58071;SDS011;60383;46.626;18.866;2022-09-12T13:25:27;3.60;;;2.53;;
58071;SDS011;60383;46.626;18.866;2022-09-12T13:30:32;3.67;;;1.90;;
58071;SDS011;60383;46.626;18.866;2022-09-12T13:33:10;4.25;;;1.95;;
58071;SDS011;60383;46.626;18.866;2022-09-12T13:39:04;4.57;;;1.95;;
58071;SDS011;60383;46.626;18.866;2022-09-12T13:44:43;1.88;;;1.70;;
58071;SDS011;60383;46.626;18.866;2022-09-12T13:47:18;2.55;;;2.10;;
58071;SDS011;60383;46.626;18.866;2022-09-12T13:49:51;3.20;;;2.42;;
58071;SDS011;60383;46.626;18.866;2022-09-12T13:52:19;6.80;;;2.35;;
58071;SDS011;60383;46.626;18.866;2022-09-12T13:54:48;5.88;;;2.00;;
58071;SDS011;60383;46.626;18.866;2022-09-12T13:57:37;2.72;;;1.90;;
58071;SDS011;60383;46.626;18.866;2022-09-12T14:00:10;1.87;;;1.70;;
58071;SDS011;60383;46.626;18.866;2022-09-12T14:02:44;1.90;;;1.80;;
58071;SDS011;60383;46.626;18.866;2022-09-12T14:05:12;3.50;;;1.90;;
58071;SDS011;60383;46.626;18.866;2022-09-12T14:07:53;2.30;;;1.80;;
58071;SDS011;60383;46.626;18.866;2022-09-12T14:12:50;2.08;;;1.80;;
58071;SDS011;60383;46.626;18.866;2022-09-12T14:15:23;3.08;;;1.98;;
58071;SDS011;60383;46.626;18.866;2022-09-12T14:17:53;3.17;;;2.40;;
58071;SDS011;60383;46.626;18.866;2022-09-12T14:20:23;2.67;;;2.03;;
58071;SDS011;60383;46.626;18.866;2022-09-12T14:22:50;1.92;;;1.67;;
58071;SDS011;60383;46.626;18.866;2022-09-12T14:25:17;3.92;;;1.80;;
58071;SDS011;60383;46.626;18.866;2022-09-12T14:27:52;2.38;;;1.90;;
58071;SDS011;60383;46.626;18.866;2022-09-12T14:30:27;2.25;;;1.90;;
58071;SDS011;60383;46.626;18.866;2022-09-12T14:35:37;3.50;;;1.80;;
58071;SDS011;60383;46.626;18.866;2022-09-12T14:40:41;2.10;;;1.80;;
58071;SDS011;60383;46.626;18.866;2022-09-12T14:43:17;1.73;;;1.58;;
58071;SDS011;60383;46.626;18.866;2022-09-12T14:45:53;1.80;;;1.70;;
58071;SDS011;60383;46.626;18.866;2022-09-12T14:48:20;1.70;;;1.60;;
58071;SDS011;60383;46.626;18.866;2022-09-12T14:50:49;1.80;;;1.63;;
58071;SDS011;60383;46.626;18.866;2022-09-12T14:55:43;6.63;;;2.60;;
58071;SDS011;60383;46.626;18.866;2022-09-12T15:00:54;6.38;;;1.83;;
58071;SDS011;60383;46.626;18.866;2022-09-12T15:03:26;2.50;;;1.83;;
58071;SDS011;60383;46.626;18.866;2022-09-12T15:05:51;1.92;;;1.83;;
58071;SDS011;60383;46.626;18.866;2022-09-12T15:08:17;2.20;;;2.00;;
58071;SDS011;60383;46.626;18.866;2022-09-12T15:10:42;4.00;;;2.38;;
58071;SDS011;60383;46.626;18.866;2022-09-12T15:13:10;3.92;;;2.38;;
58071;SDS011;60383;46.626;18.866;2022-09-12T15:15:41;4.65;;;3.05;;
58071;SDS011;60383;46.626;18.866;2022-09-12T15:18:08;4.05;;;2.05;;
58071;SDS011;60383;46.626;18.866;2022-09-12T15:20:35;3.50;;;2.00;;
58071;SDS011;60383;46.626;18.866;2022-09-12T15:23:03;2.67;;;2.20;;
58071;SDS011;60383;46.626;18.866;2022-09-12T15:25:32;2.40;;;2.20;;
58071;SDS011;60383;46.626;18.866;2022-09-12T15:27:57;8.15;;;6.80;;
58071;SDS011;60383;46.626;18.866;2022-09-12T15:30:23;3.35;;;2.80;;
58071;SDS011;60383;46.626;18.866;2022-09-12T15:32:48;6.30;;;2.85;;
58071;SDS011;60383;46.626;18.866;2022-09-12T15:35:15;3.47;;;2.30;;
58071;SDS011;60383;46.626;18.866;2022-09-12T15:37:46;3.15;;;2.40;;
58071;SDS011;60383;46.626;18.866;2022-09-12T15:40:12;3.03;;;2.60;;
58071;SDS011;60383;46.626;18.866;2022-09-12T15:42:38;15.20;;;9.25;;
58071;SDS011;60383;46.626;18.866;2022-09-12T15:45:17;4.47;;;2.60;;
58071;SDS011;60383;46.626;18.866;2022-09-12T15:47:44;6.70;;;5.85;;
58071;SDS011;60383;46.626;18.866;2022-09-12T15:50:10;3.17;;;2.40;;
58071;SDS011;60383;46.626;18.866;2022-09-12T15:52:36;2.80;;;2.20;;
58071;SDS011;60383;46.626;18.866;2022-09-12T15:55:02;3.17;;;2.40;;
58071;SDS011;60383;46.626;18.866;2022-09-12T15:57:28;4.35;;;2.38;;
58071;SDS011;60383;46.626;18.866;2022-09-12T15:59:54;6.13;;;2.42;;
58071;SDS011;60383;46.626;18.866;2022-09-12T16:02:19;3.35;;;2.30;;
58071;SDS011;60383;46.626;18.866;2022-09-12T16:04:45;2.92;;;2.30;;
58071;SDS011;60383;46.626;18.866;2022-09-12T16:07:12;3.35;;;2.40;;
58071;SDS011;60383;46.626;18.866;2022-09-12T16:09:37;2.38;;;2.17;;
58071;SDS011;60383;46.626;18.866;2022-09-12T16:12:03;3.90;;;2.67;;
58071;SDS011;60383;46.626;18.866;2022-09-12T16:14:29;2.30;;;2.10;;
58071;SDS011;60383;46.626;18.866;2022-09-12T16:16:55;3.25;;;2.50;;
58071;SDS011;60383;46.626;18.866;2022-09-12T16:19:20;4.55;;;2.20;;
58071;SDS011;60383;46.626;18.866;2022-09-12T16:21:46;3.28;;;2.33;;
58071;SDS011;60383;46.626;18.866;2022-09-12T16:24:13;3.08;;;2.03;;
58071;SDS011;60383;46.626;18.866;2022-09-12T16:26:39;5.57;;;2.38;;
58071;SDS011;60383;46.626;18.866;2022-09-12T16:29:04;3.53;;;2.38;;
58071;SDS011;60383;46.626;18.866;2022-09-12T16:31:29;2.55;;;2.33;;
58071;SDS011;60383;46.626;18.866;2022-09-12T16:33:55;2.63;;;2.40;;
58071;SDS011;60383;46.626;18.866;2022-09-12T16:36:21;3.70;;;2.35;;
58071;SDS011;60383;46.626;18.866;2022-09-12T16:38:50;3.55;;;2.20;;
58071;SDS011;60383;46.626;18.866;2022-09-12T16:41:18;5.22;;;2.58;;
58071;SDS011;60383;46.626;18.866;2022-09-12T16:43:45;3.80;;;2.47;;
58071;SDS011;60383;46.626;18.866;2022-09-12T16:46:32;3.60;;;2.55;;
58071;SDS011;60383;46.626;18.866;2022-09-12T16:48:57;3.65;;;2.38;;
58071;SDS011;60383;46.626;18.866;2022-09-12T16:51:26;3.22;;;2.50;;
58071;SDS011;60383;46.626;18.866;2022-09-12T16:53:57;2.63;;;2.40;;
58071;SDS011;60383;46.626;18.866;2022-09-12T16:56:23;4.93;;;2.60;;
58071;SDS011;60383;46.626;18.866;2022-09-12T16:58:49;2.83;;;2.35;;
58071;SDS011;60383;46.626;18.866;2022-09-12T17:01:19;2.28;;;2.08;;
58071;SDS011;60383;46.626;18.866;2022-09-12T17:03:46;4.45;;;2.55;;
58071;SDS011;60383;46.626;18.866;2022-09-12T17:06:14;2.63;;;2.42;;
58071;SDS011;60383;46.626;18.866;2022-09-12T17:08:42;5.20;;;2.63;;
58071;SDS011;60383;46.626;18.866;2022-09-12T17:11:10;4.10;;;2.90;;
58071;SDS011;60383;46.626;18.866;2022-09-12T17:13:37;6.25;;;2.40;;
58071;SDS011;60383;46.626;18.866;2022-09-12T17:16:04;2.70;;;2.50;;
58071;SDS011;60383;46.626;18.866;2022-09-12T17:18:30;2.40;;;2.20;;
58071;SDS011;60383;46.626;18.866;2022-09-12T17:20:56;5.05;;;2.55;;
58071;SDS011;60383;46.626;18.866;2022-09-12T17:23:21;2.40;;;2.17;;
58071;SDS011;60383;46.626;18.866;2022-09-12T17:25:48;3.97;;;2.63;;
58071;SDS011;60383;46.626;18.866;2022-09-12T17:28:15;2.85;;;2.42;;
58071;SDS011;60383;46.626;18.866;2022-09-12T17:30:41;5.22;;;2.58;;
58071;SDS011;60383;46.626;18.866;2022-09-12T17:33:07;3.15;;;2.30;;
58071;SDS011;60383;46.626;18.866;2022-09-12T17:35:33;4.07;;;2.65;;